sensor_id;sensor_type;location;lat;lon;timestamp;temperature;humidity
15717;DHT22;7960;50.908;4.204;2023-05-10T00:01:36;12.80;99.90
15717;DHT22;7960;50.908;4.204;2023-05-10T00:04:03;12.70;99.90
15717;DHT22;7960;50.908;4.204;2023-05-10T00:06:30;12.80;99.90
15717;DHT22;7960;50.908;4.204;2023-05-10T00:08:57;12.90;99.90
15717;DHT22;7960;50.908;4.204;2023-05-10T00:11:24;12.90;99.90
15717;DHT22;7960;50.908;4.204;2023-05-10T00:13:51;12.90;99.90
15717;DHT22;7960;50.908;4.204;2023-05-10T00:16:18;12.80;99.90
15717;DHT22;7960;50.908;4.204;2023-05-10T00:18:46;12.80;99.90
15717;DHT22;7960;50.908;4.204;2023-05-10T00:21:13;12.80;99.90
15717;DHT22;7960;50.908;4.204;2023-05-10T00:23:40;12.80;99.90
15717;DHT22;7960;50.908;4.204;2023-05-10T00:26:07;12.90;99.90
15717;DHT22;7960;50.908;4.204;2023-05-10T00:28:34;12.80;99.90
15717;DHT22;7960;50.908;4.204;2023-05-10T00:31:01;12.80;99.90
15717;DHT22;7960;50.908;4.204;2023-05-10T00:33:27;12.80;99.90
15717;DHT22;7960;50.908;4.204;2023-05-10T00:35:56;12.80;99.90
15717;DHT22;7960;50.908;4.204;2023-05-10T00:38:23;12.80;99.90
15717;DHT22;7960;50.908;4.204;2023-05-10T00:40:50;12.80;99.90
15717;DHT22;7960;50.908;4.204;2023-05-10T00:43:17;12.80;99.90
15717;DHT22;7960;50.908;4.204;2023-05-10T00:45:44;12.90;99.90
15717;DHT22;7960;50.908;4.204;2023-05-10T00:48:11;12.80;99.90
15717;DHT22;7960;50.908;4.204;2023-05-10T00:50:39;12.80;99.90
15717;DHT22;7960;50.908;4.204;2023-05-10T00:53:07;12.80;99.90
15717;DHT22;7960;50.908;4.204;2023-05-10T00:55:35;12.80;99.90
15717;DHT22;7960;50.908;4.204;2023-05-10T00:58:02;12.80;99.90
15717;DHT22;7960;50.908;4.204;2023-05-10T01:00:29;12.80;99.90
15717;DHT22;7960;50.908;4.204;2023-05-10T01:02:56;12.80;99.90
15717;DHT22;7960;50.908;4.204;2023-05-10T01:05:23;12.80;99.90
15717;DHT22;7960;50.908;4.204;2023-05-10T01:07:50;12.80;99.90
15717;DHT22;7960;50.908;4.204;2023-05-10T01:10:18;12.90;99.90
15717;DHT22;7960;50.908;4.204;2023-05-10T01:12:46;12.80;99.90
15717;DHT22;7960;50.908;4.204;2023-05-10T01:15:15;12.80;99.90
15717;DHT22;7960;50.908;4.204;2023-05-10T01:17:44;12.80;99.90
15717;DHT22;7960;50.908;4.204;2023-05-10T01:20:12;12.80;99.90
15717;DHT22;7960;50.908;4.204;2023-05-10T01:23:05;12.80;99.90
15717;DHT22;7960;50.908;4.204;2023-05-10T01:25:59;12.70;99.90
15717;DHT22;7960;50.908;4.204;2023-05-10T01:28:58;12.70;99.90
15717;DHT22;7960;50.908;4.204;2023-05-10T01:31:39;12.80;99.90
15717;DHT22;7960;50.908;4.204;2023-05-10T01:34:09;12.80;99.90
15717;DHT22;7960;50.908;4.204;2023-05-10T01:36:43;12.80;99.90
15717;DHT22;7960;50.908;4.204;2023-05-10T01:39:16;12.70;99.90
15717;DHT22;7960;50.908;4.204;2023-05-10T01:41:54;12.70;99.90
15717;DHT22;7960;50.908;4.204;2023-05-10T01:44:29;12.80;99.90
15717;DHT22;7960;50.908;4.204;2023-05-10T01:47:01;12.80;99.90
15717;DHT22;7960;50.908;4.204;2023-05-10T01:49:36;12.70;99.90
15717;DHT22;7960;50.908;4.204;2023-05-10T01:52:09;12.80;99.90
15717;DHT22;7960;50.908;4.204;2023-05-10T01:54:38;12.70;99.90
15717;DHT22;7960;50.908;4.204;2023-05-10T01:57:09;12.70;99.90
15717;DHT22;7960;50.908;4.204;2023-05-10T01:59:40;12.70;99.90
15717;DHT22;7960;50.908;4.204;2023-05-10T02:02:10;12.70;99.90
15717;DHT22;7960;50.908;4.204;2023-05-10T02:04:40;12.70;99.90
15717;DHT22;7960;50.908;4.204;2023-05-10T02:07:09;12.80;99.90
15717;DHT22;7960;50.908;4.204;2023-05-10T02:09:37;12.70;99.90
15717;DHT22;7960;50.908;4.204;2023-05-10T02:12:06;12.70;99.90
15717;DHT22;7960;50.908;4.204;2023-05-10T02:14:35;12.70;99.90
15717;DHT22;7960;50.908;4.204;2023-05-10T02:17:05;12.60;99.90
15717;DHT22;7960;50.908;4.204;2023-05-10T02:19:32;12.60;99.90
15717;DHT22;7960;50.908;4.204;2023-05-10T02:22:02;12.60;99.90
15717;DHT22;7960;50.908;4.204;2023-05-10T02:24:30;12.60;99.90
15717;DHT22;7960;50.908;4.204;2023-05-10T02:26:59;12.60;99.90
15717;DHT22;7960;50.908;4.204;2023-05-10T02:29:27;12.60;99.90
15717;DHT22;7960;50.908;4.204;2023-05-10T02:31:55;12.70;99.90
15717;DHT22;7960;50.908;4.204;2023-05-10T02:34:23;12.70;99.90
15717;DHT22;7960;50.908;4.204;2023-05-10T02:36:52;12.60;99.90
15717;DHT22;7960;50.908;4.204;2023-05-10T02:39:21;12.60;99.90
15717;DHT22;7960;50.908;4.204;2023-05-10T02:41:49;12.60;99.90
15717;DHT22;7960;50.908;4.204;2023-05-10T02:44:19;12.60;99.90
15717;DHT22;7960;50.908;4.204;2023-05-10T02:46:46;12.60;99.90
15717;DHT22;7960;50.908;4.204;2023-05-10T02:49:14;12.50;99.90
15717;DHT22;7960;50.908;4.204;2023-05-10T02:51:43;12.60;99.90
15717;DHT22;7960;50.908;4.204;2023-05-10T02:54:15;12.50;99.90
15717;DHT22;7960;50.908;4.204;2023-05-10T02:56:51;12.40;99.90
15717;DHT22;7960;50.908;4.204;2023-05-10T02:59:19;12.50;99.90
15717;DHT22;7960;50.908;4.204;2023-05-10T03:01:46;12.50;99.90
15717;DHT22;7960;50.908;4.204;2023-05-10T03:04:13;12.40;99.90
15717;DHT22;7960;50.908;4.204;2023-05-10T03:06:40;12.50;99.90
15717;DHT22;7960;50.908;4.204;2023-05-10T03:09:07;12.50;99.90
15717;DHT22;7960;50.908;4.204;2023-05-10T03:11:47;12.50;99.90
15717;DHT22;7960;50.908;4.204;2023-05-10T03:14:25;12.50;99.90
15717;DHT22;7960;50.908;4.204;2023-05-10T03:16:58;12.50;99.90
15717;DHT22;7960;50.908;4.204;2023-05-10T03:19:30;12.40;99.90
15717;DHT22;7960;50.908;4.204;2023-05-10T03:22:02;12.40;99.90
15717;DHT22;7960;50.908;4.204;2023-05-10T03:24:30;12.50;99.90
15717;DHT22;7960;50.908;4.204;2023-05-10T03:27:00;12.50;99.90
15717;DHT22;7960;50.908;4.204;2023-05-10T03:29:28;12.50;99.90
15717;DHT22;7960;50.908;4.204;2023-05-10T03:31:57;12.50;99.90
15717;DHT22;7960;50.908;4.204;2023-05-10T03:34:24;12.50;99.90
15717;DHT22;7960;50.908;4.204;2023-05-10T03:36:52;12.50;99.90
15717;DHT22;7960;50.908;4.204;2023-05-10T03:39:19;12.50;99.90
15717;DHT22;7960;50.908;4.204;2023-05-10T03:41:46;12.50;99.90
15717;DHT22;7960;50.908;4.204;2023-05-10T03:44:15;12.50;99.90
15717;DHT22;7960;50.908;4.204;2023-05-10T03:46:42;12.50;99.90
15717;DHT22;7960;50.908;4.204;2023-05-10T03:49:08;12.40;99.90
15717;DHT22;7960;50.908;4.204;2023-05-10T03:51:35;12.50;99.90
15717;DHT22;7960;50.908;4.204;2023-05-10T03:54:02;12.60;99.90
15717;DHT22;7960;50.908;4.204;2023-05-10T03:56:29;12.60;99.90
15717;DHT22;7960;50.908;4.204;2023-05-10T03:58:56;12.50;99.90
15717;DHT22;7960;50.908;4.204;2023-05-10T04:01:24;12.50;99.90
15717;DHT22;7960;50.908;4.204;2023-05-10T04:03:51;12.50;99.90
15717;DHT22;7960;50.908;4.204;2023-05-10T04:06:18;12.60;99.90
15717;DHT22;7960;50.908;4.204;2023-05-10T04:08:45;12.50;99.90
15717;DHT22;7960;50.908;4.204;2023-05-10T04:11:12;12.60;99.90
15717;DHT22;7960;50.908;4.204;2023-05-10T04:13:39;12.70;99.90
15717;DHT22;7960;50.908;4.204;2023-05-10T04:16:06;12.70;99.90
15717;DHT22;7960;50.908;4.204;2023-05-10T04:18:35;12.60;99.90
15717;DHT22;7960;50.908;4.204;2023-05-10T04:21:01;12.70;99.90
15717;DHT22;7960;50.908;4.204;2023-05-10T04:23:28;12.70;99.90
15717;DHT22;7960;50.908;4.204;2023-05-10T04:25:59;12.80;99.90
15717;DHT22;7960;50.908;4.204;2023-05-10T04:28:27;12.80;99.90
15717;DHT22;7960;50.908;4.204;2023-05-10T04:31:00;12.80;99.90
15717;DHT22;7960;50.908;4.204;2023-05-10T04:33:27;12.80;99.90
15717;DHT22;7960;50.908;4.204;2023-05-10T04:35:56;12.80;99.90
15717;DHT22;7960;50.908;4.204;2023-05-10T04:38:23;12.90;99.90
15717;DHT22;7960;50.908;4.204;2023-05-10T04:40:50;12.80;99.90
15717;DHT22;7960;50.908;4.204;2023-05-10T04:43:17;12.90;99.90
15717;DHT22;7960;50.908;4.204;2023-05-10T04:45:43;12.80;99.90
15717;DHT22;7960;50.908;4.204;2023-05-10T04:48:10;12.80;99.90
15717;DHT22;7960;50.908;4.204;2023-05-10T04:50:38;12.90;99.90
15717;DHT22;7960;50.908;4.204;2023-05-10T04:53:07;12.90;99.90
15717;DHT22;7960;50.908;4.204;2023-05-10T04:55:33;12.80;99.90
15717;DHT22;7960;50.908;4.204;2023-05-10T04:58:00;12.80;99.90
15717;DHT22;7960;50.908;4.204;2023-05-10T05:00:28;12.80;99.90
15717;DHT22;7960;50.908;4.204;2023-05-10T05:02:55;12.70;99.90
15717;DHT22;7960;50.908;4.204;2023-05-10T05:05:22;12.70;99.90
15717;DHT22;7960;50.908;4.204;2023-05-10T05:07:49;12.70;99.90
15717;DHT22;7960;50.908;4.204;2023-05-10T05:10:18;12.80;99.90
15717;DHT22;7960;50.908;4.204;2023-05-10T05:12:45;12.80;99.90
15717;DHT22;7960;50.908;4.204;2023-05-10T05:15:12;12.80;99.90
15717;DHT22;7960;50.908;4.204;2023-05-10T05:17:38;12.80;99.90
15717;DHT22;7960;50.908;4.204;2023-05-10T05:20:06;12.80;99.90
15717;DHT22;7960;50.908;4.204;2023-05-10T05:22:35;12.80;99.90
15717;DHT22;7960;50.908;4.204;2023-05-10T05:25:02;12.80;99.90
15717;DHT22;7960;50.908;4.204;2023-05-10T05:27:31;12.80;99.90
15717;DHT22;7960;50.908;4.204;2023-05-10T05:29:58;12.90;99.90
15717;DHT22;7960;50.908;4.204;2023-05-10T05:32:25;12.80;99.90
15717;DHT22;7960;50.908;4.204;2023-05-10T05:34:52;12.90;99.90
15717;DHT22;7960;50.908;4.204;2023-05-10T05:37:20;12.90;99.90
15717;DHT22;7960;50.908;4.204;2023-05-10T05:39:48;12.90;99.90
15717;DHT22;7960;50.908;4.204;2023-05-10T05:42:15;12.90;99.90
15717;DHT22;7960;50.908;4.204;2023-05-10T05:44:45;13.00;99.90
15717;DHT22;7960;50.908;4.204;2023-05-10T05:47:12;12.90;99.90
15717;DHT22;7960;50.908;4.204;2023-05-10T05:49:39;13.00;99.90
15717;DHT22;7960;50.908;4.204;2023-05-10T05:52:06;13.00;99.90
15717;DHT22;7960;50.908;4.204;2023-05-10T05:54:33;13.10;99.90
15717;DHT22;7960;50.908;4.204;2023-05-10T05:57:01;12.90;99.90
15717;DHT22;7960;50.908;4.204;2023-05-10T05:59:28;12.80;99.90
15717;DHT22;7960;50.908;4.204;2023-05-10T06:01:56;12.90;99.90
15717;DHT22;7960;50.908;4.204;2023-05-10T06:04:24;12.90;99.90
15717;DHT22;7960;50.908;4.204;2023-05-10T06:06:51;12.80;99.90
15717;DHT22;7960;50.908;4.204;2023-05-10T06:09:18;12.80;99.90
15717;DHT22;7960;50.908;4.204;2023-05-10T06:11:44;12.80;99.90
15717;DHT22;7960;50.908;4.204;2023-05-10T06:14:11;12.70;99.90
15717;DHT22;7960;50.908;4.204;2023-05-10T06:16:38;12.80;99.90
15717;DHT22;7960;50.908;4.204;2023-05-10T06:19:07;12.70;99.90
15717;DHT22;7960;50.908;4.204;2023-05-10T06:21:34;12.70;99.90
15717;DHT22;7960;50.908;4.204;2023-05-10T06:24:01;12.70;99.90
15717;DHT22;7960;50.908;4.204;2023-05-10T06:26:28;12.70;99.90
15717;DHT22;7960;50.908;4.204;2023-05-10T06:28:55;12.80;99.90
15717;DHT22;7960;50.908;4.204;2023-05-10T06:31:22;12.80;99.90
15717;DHT22;7960;50.908;4.204;2023-05-10T06:33:49;12.70;99.90
15717;DHT22;7960;50.908;4.204;2023-05-10T06:36:17;12.70;99.90
15717;DHT22;7960;50.908;4.204;2023-05-10T06:38:44;12.80;99.90
15717;DHT22;7960;50.908;4.204;2023-05-10T06:41:11;12.80;99.90
15717;DHT22;7960;50.908;4.204;2023-05-10T06:43:38;12.80;99.90
15717;DHT22;7960;50.908;4.204;2023-05-10T06:46:06;12.80;99.90
15717;DHT22;7960;50.908;4.204;2023-05-10T06:48:33;12.90;99.90
15717;DHT22;7960;50.908;4.204;2023-05-10T06:51:00;12.90;99.90
15717;DHT22;7960;50.908;4.204;2023-05-10T06:53:29;12.90;99.90
15717;DHT22;7960;50.908;4.204;2023-05-10T06:55:55;12.90;99.90
15717;DHT22;7960;50.908;4.204;2023-05-10T06:58:22;12.70;99.90
15717;DHT22;7960;50.908;4.204;2023-05-10T07:00:49;12.70;99.90
15717;DHT22;7960;50.908;4.204;2023-05-10T07:03:16;12.70;99.90
15717;DHT22;7960;50.908;4.204;2023-05-10T07:05:43;12.70;99.90
15717;DHT22;7960;50.908;4.204;2023-05-10T07:08:10;12.70;99.90
15717;DHT22;7960;50.908;4.204;2023-05-10T07:10:38;12.70;99.90
15717;DHT22;7960;50.908;4.204;2023-05-10T07:13:05;12.80;99.90
15717;DHT22;7960;50.908;4.204;2023-05-10T07:15:32;12.80;99.90
15717;DHT22;7960;50.908;4.204;2023-05-10T07:17:59;12.90;99.90
15717;DHT22;7960;50.908;4.204;2023-05-10T07:20:26;12.90;99.90
15717;DHT22;7960;50.908;4.204;2023-05-10T07:22:53;12.90;99.90
15717;DHT22;7960;50.908;4.204;2023-05-10T07:25:19;13.00;99.90
15717;DHT22;7960;50.908;4.204;2023-05-10T07:27:48;13.10;99.90
15717;DHT22;7960;50.908;4.204;2023-05-10T07:30:15;13.20;99.90
15717;DHT22;7960;50.908;4.204;2023-05-10T07:32:42;13.20;99.90
15717;DHT22;7960;50.908;4.204;2023-05-10T07:35:09;13.20;99.90
15717;DHT22;7960;50.908;4.204;2023-05-10T07:37:35;13.10;99.90
15717;DHT22;7960;50.908;4.204;2023-05-10T07:40:03;13.00;99.90
15717;DHT22;7960;50.908;4.204;2023-05-10T07:42:30;13.00;99.90
15717;DHT22;7960;50.908;4.204;2023-05-10T07:44:58;12.90;99.90
15717;DHT22;7960;50.908;4.204;2023-05-10T07:47:25;12.90;99.90
15717;DHT22;7960;50.908;4.204;2023-05-10T07:49:52;12.80;99.90
15717;DHT22;7960;50.908;4.204;2023-05-10T07:52:19;12.90;99.90
15717;DHT22;7960;50.908;4.204;2023-05-10T07:54:46;12.90;99.90
15717;DHT22;7960;50.908;4.204;2023-05-10T07:57:13;12.90;99.90
15717;DHT22;7960;50.908;4.204;2023-05-10T07:59:43;13.00;99.90
15717;DHT22;7960;50.908;4.204;2023-05-10T08:02:11;13.00;99.90
15717;DHT22;7960;50.908;4.204;2023-05-10T08:04:38;12.90;99.90
15717;DHT22;7960;50.908;4.204;2023-05-10T08:07:05;12.90;99.90
15717;DHT22;7960;50.908;4.204;2023-05-10T08:09:32;12.80;99.90
15717;DHT22;7960;50.908;4.204;2023-05-10T08:11:59;12.50;99.90
15717;DHT22;7960;50.908;4.204;2023-05-10T08:14:28;12.40;99.90
15717;DHT22;7960;50.908;4.204;2023-05-10T08:16:55;12.50;99.90
15717;DHT22;7960;50.908;4.204;2023-05-10T08:19:24;12.40;99.90
15717;DHT22;7960;50.908;4.204;2023-05-10T08:21:51;12.50;99.90
15717;DHT22;7960;50.908;4.204;2023-05-10T08:24:18;12.50;99.90
15717;DHT22;7960;50.908;4.204;2023-05-10T08:26:45;12.40;99.90
15717;DHT22;7960;50.908;4.204;2023-05-10T08:29:13;12.30;99.90
15717;DHT22;7960;50.908;4.204;2023-05-10T08:31:40;12.40;99.90
15717;DHT22;7960;50.908;4.204;2023-05-10T08:34:07;12.40;99.90
15717;DHT22;7960;50.908;4.204;2023-05-10T08:36:36;12.40;99.90
15717;DHT22;7960;50.908;4.204;2023-05-10T08:39:03;12.40;99.90
15717;DHT22;7960;50.908;4.204;2023-05-10T08:41:33;12.50;99.90
15717;DHT22;7960;50.908;4.204;2023-05-10T08:44:03;12.50;99.90
15717;DHT22;7960;50.908;4.204;2023-05-10T08:46:31;12.40;99.90
15717;DHT22;7960;50.908;4.204;2023-05-10T08:49:02;12.40;99.90
15717;DHT22;7960;50.908;4.204;2023-05-10T08:51:36;12.50;99.90
15717;DHT22;7960;50.908;4.204;2023-05-10T08:54:05;12.50;99.90
15717;DHT22;7960;50.908;4.204;2023-05-10T08:56:32;12.40;99.90
15717;DHT22;7960;50.908;4.204;2023-05-10T08:58:59;12.50;99.90
15717;DHT22;7960;50.908;4.204;2023-05-10T09:01:26;12.40;99.90
15717;DHT22;7960;50.908;4.204;2023-05-10T09:03:54;12.40;99.90
15717;DHT22;7960;50.908;4.204;2023-05-10T09:06:21;12.50;99.90
15717;DHT22;7960;50.908;4.204;2023-05-10T09:08:49;12.50;99.90
15717;DHT22;7960;50.908;4.204;2023-05-10T09:11:17;12.60;99.90
15717;DHT22;7960;50.908;4.204;2023-05-10T09:13:47;12.60;99.90
15717;DHT22;7960;50.908;4.204;2023-05-10T09:16:14;12.60;99.90
15717;DHT22;7960;50.908;4.204;2023-05-10T09:18:41;12.70;99.90
15717;DHT22;7960;50.908;4.204;2023-05-10T09:21:10;12.60;99.90
15717;DHT22;7960;50.908;4.204;2023-05-10T09:23:37;12.70;99.90
15717;DHT22;7960;50.908;4.204;2023-05-10T09:26:04;12.80;99.90
15717;DHT22;7960;50.908;4.204;2023-05-10T09:28:34;12.80;99.90
15717;DHT22;7960;50.908;4.204;2023-05-10T09:31:01;12.90;99.90
15717;DHT22;7960;50.908;4.204;2023-05-10T09:33:27;12.90;99.90
15717;DHT22;7960;50.908;4.204;2023-05-10T09:35:55;13.00;99.90
15717;DHT22;7960;50.908;4.204;2023-05-10T09:38:21;13.00;99.90
15717;DHT22;7960;50.908;4.204;2023-05-10T09:40:52;13.00;99.90
15717;DHT22;7960;50.908;4.204;2023-05-10T09:43:21;13.00;99.90
15717;DHT22;7960;50.908;4.204;2023-05-10T09:45:49;12.90;99.90
15717;DHT22;7960;50.908;4.204;2023-05-10T09:48:16;12.90;99.90
15717;DHT22;7960;50.908;4.204;2023-05-10T09:50:43;13.00;99.90
15717;DHT22;7960;50.908;4.204;2023-05-10T09:53:14;12.90;99.90
15717;DHT22;7960;50.908;4.204;2023-05-10T09:55:43;13.00;99.90
15717;DHT22;7960;50.908;4.204;2023-05-10T09:58:12;12.90;99.90
15717;DHT22;7960;50.908;4.204;2023-05-10T10:00:40;13.00;99.90
15717;DHT22;7960;50.908;4.204;2023-05-10T10:03:12;13.00;99.90
15717;DHT22;7960;50.908;4.204;2023-05-10T10:05:40;13.10;99.90
15717;DHT22;7960;50.908;4.204;2023-05-10T10:08:08;13.10;99.90
15717;DHT22;7960;50.908;4.204;2023-05-10T10:10:35;13.20;99.90
15717;DHT22;7960;50.908;4.204;2023-05-10T10:13:02;13.10;99.90
15717;DHT22;7960;50.908;4.204;2023-05-10T10:15:30;13.20;99.90
15717;DHT22;7960;50.908;4.204;2023-05-10T10:17:59;13.20;99.90
15717;DHT22;7960;50.908;4.204;2023-05-10T10:20:28;13.20;99.90
15717;DHT22;7960;50.908;4.204;2023-05-10T10:22:55;13.30;99.90
15717;DHT22;7960;50.908;4.204;2023-05-10T10:25:22;13.30;99.90
15717;DHT22;7960;50.908;4.204;2023-05-10T10:27:59;13.30;99.90
15717;DHT22;7960;50.908;4.204;2023-05-10T10:30:31;13.30;99.90
15717;DHT22;7960;50.908;4.204;2023-05-10T10:33:18;13.30;99.90
15717;DHT22;7960;50.908;4.204;2023-05-10T10:35:52;13.30;99.90
15717;DHT22;7960;50.908;4.204;2023-05-10T10:38:20;13.50;99.90
15717;DHT22;7960;50.908;4.204;2023-05-10T10:40:47;13.50;99.90
15717;DHT22;7960;50.908;4.204;2023-05-10T10:43:22;13.60;99.90
15717;DHT22;7960;50.908;4.204;2023-05-10T10:46:09;13.70;99.90
15717;DHT22;7960;50.908;4.204;2023-05-10T10:48:36;13.60;99.90
15717;DHT22;7960;50.908;4.204;2023-05-10T10:51:05;13.70;99.90
15717;DHT22;7960;50.908;4.204;2023-05-10T10:53:32;13.70;99.90
15717;DHT22;7960;50.908;4.204;2023-05-10T10:56:06;13.60;99.90
15717;DHT22;7960;50.908;4.204;2023-05-10T10:58:35;13.70;99.90
15717;DHT22;7960;50.908;4.204;2023-05-10T11:01:13;13.70;99.90
15717;DHT22;7960;50.908;4.204;2023-05-10T11:03:54;13.60;99.90
15717;DHT22;7960;50.908;4.204;2023-05-10T11:06:30;13.70;99.90
15717;DHT22;7960;50.908;4.204;2023-05-10T11:08:59;13.80;99.90
15717;DHT22;7960;50.908;4.204;2023-05-10T11:11:26;13.80;99.90
15717;DHT22;7960;50.908;4.204;2023-05-10T11:13:53;13.80;99.90
15717;DHT22;7960;50.908;4.204;2023-05-10T11:16:40;13.90;99.90
15717;DHT22;7960;50.908;4.204;2023-05-10T11:19:10;13.80;99.90
15717;DHT22;7960;50.908;4.204;2023-05-10T11:21:46;13.80;99.90
15717;DHT22;7960;50.908;4.204;2023-05-10T11:24:16;13.80;99.90
15717;DHT22;7960;50.908;4.204;2023-05-10T11:26:43;13.80;99.90
15717;DHT22;7960;50.908;4.204;2023-05-10T11:29:10;13.90;99.90
15717;DHT22;7960;50.908;4.204;2023-05-10T11:31:42;14.00;99.90
15717;DHT22;7960;50.908;4.204;2023-05-10T11:34:10;14.00;99.90
15717;DHT22;7960;50.908;4.204;2023-05-10T11:36:38;14.00;99.90
15717;DHT22;7960;50.908;4.204;2023-05-10T11:39:06;14.00;99.90
15717;DHT22;7960;50.908;4.204;2023-05-10T11:41:33;14.00;99.90
15717;DHT22;7960;50.908;4.204;2023-05-10T11:44:01;13.90;99.90
15717;DHT22;7960;50.908;4.204;2023-05-10T11:46:28;13.90;99.90
15717;DHT22;7960;50.908;4.204;2023-05-10T11:48:57;13.90;99.90
15717;DHT22;7960;50.908;4.204;2023-05-10T11:51:27;13.80;99.90
15717;DHT22;7960;50.908;4.204;2023-05-10T11:53:55;13.80;99.90
15717;DHT22;7960;50.908;4.204;2023-05-10T11:56:24;13.90;99.90
15717;DHT22;7960;50.908;4.204;2023-05-10T11:58:55;13.90;99.90
15717;DHT22;7960;50.908;4.204;2023-05-10T12:01:23;14.00;99.90
15717;DHT22;7960;50.908;4.204;2023-05-10T12:03:51;14.00;99.90
15717;DHT22;7960;50.908;4.204;2023-05-10T12:06:19;14.00;99.90
15717;DHT22;7960;50.908;4.204;2023-05-10T12:08:47;14.00;99.90
15717;DHT22;7960;50.908;4.204;2023-05-10T12:11:17;14.00;99.90
15717;DHT22;7960;50.908;4.204;2023-05-10T12:13:47;14.10;99.90
15717;DHT22;7960;50.908;4.204;2023-05-10T12:16:19;14.00;99.90
15717;DHT22;7960;50.908;4.204;2023-05-10T12:18:48;14.10;99.90
15717;DHT22;7960;50.908;4.204;2023-05-10T12:21:17;14.10;99.90
15717;DHT22;7960;50.908;4.204;2023-05-10T12:23:45;14.30;99.90
15717;DHT22;7960;50.908;4.204;2023-05-10T12:26:13;14.20;99.90
15717;DHT22;7960;50.908;4.204;2023-05-10T12:28:40;14.30;99.90
15717;DHT22;7960;50.908;4.204;2023-05-10T12:31:08;14.20;99.90
15717;DHT22;7960;50.908;4.204;2023-05-10T12:33:36;14.20;99.90
15717;DHT22;7960;50.908;4.204;2023-05-10T12:36:05;14.30;99.90
15717;DHT22;7960;50.908;4.204;2023-05-10T12:38:33;14.30;99.90
15717;DHT22;7960;50.908;4.204;2023-05-10T12:41:02;14.50;99.90
15717;DHT22;7960;50.908;4.204;2023-05-10T12:43:30;14.50;99.90
15717;DHT22;7960;50.908;4.204;2023-05-10T12:45:57;14.60;99.90
15717;DHT22;7960;50.908;4.204;2023-05-10T12:48:25;14.40;99.90
15717;DHT22;7960;50.908;4.204;2023-05-10T12:50:54;14.50;99.90
15717;DHT22;7960;50.908;4.204;2023-05-10T12:53:21;14.50;99.90
15717;DHT22;7960;50.908;4.204;2023-05-10T12:55:48;14.50;99.90
15717;DHT22;7960;50.908;4.204;2023-05-10T12:58:14;14.60;99.90
15717;DHT22;7960;50.908;4.204;2023-05-10T13:00:41;14.60;99.90
15717;DHT22;7960;50.908;4.204;2023-05-10T13:03:09;14.60;99.90
15717;DHT22;7960;50.908;4.204;2023-05-10T13:05:38;14.70;99.90
15717;DHT22;7960;50.908;4.204;2023-05-10T13:08:05;14.60;99.90
15717;DHT22;7960;50.908;4.204;2023-05-10T13:10:32;14.70;99.90
15717;DHT22;7960;50.908;4.204;2023-05-10T13:12:59;14.70;99.90
15717;DHT22;7960;50.908;4.204;2023-05-10T13:15:26;14.70;99.90
15717;DHT22;7960;50.908;4.204;2023-05-10T13:17:53;14.60;99.90
15717;DHT22;7960;50.908;4.204;2023-05-10T13:20:20;14.70;99.90
15717;DHT22;7960;50.908;4.204;2023-05-10T13:22:49;14.80;99.90
15717;DHT22;7960;50.908;4.204;2023-05-10T13:25:16;14.80;99.90
15717;DHT22;7960;50.908;4.204;2023-05-10T13:27:43;14.90;99.90
15717;DHT22;7960;50.908;4.204;2023-05-10T13:30:10;14.90;99.90
15717;DHT22;7960;50.908;4.204;2023-05-10T13:32:37;15.00;99.90
15717;DHT22;7960;50.908;4.204;2023-05-10T13:35:05;15.00;99.90
15717;DHT22;7960;50.908;4.204;2023-05-10T13:37:32;15.00;99.90
15717;DHT22;7960;50.908;4.204;2023-05-10T13:40:05;15.00;99.90
15717;DHT22;7960;50.908;4.204;2023-05-10T13:42:32;15.00;99.90
15717;DHT22;7960;50.908;4.204;2023-05-10T13:44:59;15.00;99.90
15717;DHT22;7960;50.908;4.204;2023-05-10T13:47:27;15.10;99.90
15717;DHT22;7960;50.908;4.204;2023-05-10T13:49:54;15.00;99.90
15717;DHT22;7960;50.908;4.204;2023-05-10T13:52:21;15.10;99.90
15717;DHT22;7960;50.908;4.204;2023-05-10T13:54:48;15.10;99.90
15717;DHT22;7960;50.908;4.204;2023-05-10T13:57:18;15.10;99.90
15717;DHT22;7960;50.908;4.204;2023-05-10T13:59:45;15.30;99.90
15717;DHT22;7960;50.908;4.204;2023-05-10T14:02:12;15.30;99.90
15717;DHT22;7960;50.908;4.204;2023-05-10T14:04:39;15.20;99.90
15717;DHT22;7960;50.908;4.204;2023-05-10T14:07:06;15.30;99.90
15717;DHT22;7960;50.908;4.204;2023-05-10T14:09:33;15.30;99.90
15717;DHT22;7960;50.908;4.204;2023-05-10T14:12:00;15.30;99.90
15717;DHT22;7960;50.908;4.204;2023-05-10T14:14:29;15.30;99.90
15717;DHT22;7960;50.908;4.204;2023-05-10T14:16:56;15.40;99.90
15717;DHT22;7960;50.908;4.204;2023-05-10T14:19:22;15.40;99.90
15717;DHT22;7960;50.908;4.204;2023-05-10T14:21:49;15.50;99.90
15717;DHT22;7960;50.908;4.204;2023-05-10T14:24:17;15.40;99.90
15717;DHT22;7960;50.908;4.204;2023-05-10T14:26:44;15.40;99.90
15717;DHT22;7960;50.908;4.204;2023-05-10T14:29:11;15.30;99.90
15717;DHT22;7960;50.908;4.204;2023-05-10T14:31:40;15.20;99.90
15717;DHT22;7960;50.908;4.204;2023-05-10T14:34:07;15.10;99.90
15717;DHT22;7960;50.908;4.204;2023-05-10T14:36:33;15.00;99.90
15717;DHT22;7960;50.908;4.204;2023-05-10T14:39:00;14.90;99.90
15717;DHT22;7960;50.908;4.204;2023-05-10T14:41:28;14.90;99.90
15717;DHT22;7960;50.908;4.204;2023-05-10T14:43:55;14.80;99.90
15717;DHT22;7960;50.908;4.204;2023-05-10T14:46:22;14.70;99.90
15717;DHT22;7960;50.908;4.204;2023-05-10T14:48:51;14.50;99.90
15717;DHT22;7960;50.908;4.204;2023-05-10T14:51:18;14.30;99.90
15717;DHT22;7960;50.908;4.204;2023-05-10T14:53:47;14.20;99.90
15717;DHT22;7960;50.908;4.204;2023-05-10T14:56:14;14.10;99.90
15717;DHT22;7960;50.908;4.204;2023-05-10T14:58:41;14.00;99.90
15717;DHT22;7960;50.908;4.204;2023-05-10T15:01:08;13.90;99.90
15717;DHT22;7960;50.908;4.204;2023-05-10T15:03:35;13.80;99.90
15717;DHT22;7960;50.908;4.204;2023-05-10T15:06:04;13.70;99.90
15717;DHT22;7960;50.908;4.204;2023-05-10T15:08:31;13.60;99.90
15717;DHT22;7960;50.908;4.204;2023-05-10T15:10:57;13.60;99.90
15717;DHT22;7960;50.908;4.204;2023-05-10T15:13:24;13.50;99.90
15717;DHT22;7960;50.908;4.204;2023-05-10T15:15:51;13.60;99.90
15717;DHT22;7960;50.908;4.204;2023-05-10T15:18:18;13.40;99.90
15717;DHT22;7960;50.908;4.204;2023-05-10T15:20:45;13.40;99.90
15717;DHT22;7960;50.908;4.204;2023-05-10T15:23:13;13.40;99.90
15717;DHT22;7960;50.908;4.204;2023-05-10T15:25:41;13.40;99.90
15717;DHT22;7960;50.908;4.204;2023-05-10T15:28:08;13.40;99.90
15717;DHT22;7960;50.908;4.204;2023-05-10T15:30:34;13.40;99.90
15717;DHT22;7960;50.908;4.204;2023-05-10T15:33:01;13.50;99.90
15717;DHT22;7960;50.908;4.204;2023-05-10T15:35:28;13.50;99.90
15717;DHT22;7960;50.908;4.204;2023-05-10T15:37:55;13.50;99.90
15717;DHT22;7960;50.908;4.204;2023-05-10T15:40:23;13.50;99.90
15717;DHT22;7960;50.908;4.204;2023-05-10T15:42:50;13.50;99.90
15717;DHT22;7960;50.908;4.204;2023-05-10T15:45:18;13.40;99.90
15717;DHT22;7960;50.908;4.204;2023-05-10T15:47:45;13.40;99.90
15717;DHT22;7960;50.908;4.204;2023-05-10T15:50:12;13.60;99.90
15717;DHT22;7960;50.908;4.204;2023-05-10T15:52:39;13.60;99.90